createdAt,value
2023-05-24T00:01:26.030Z,9.02
2023-05-24T00:03:54.272Z,14.17
2023-05-24T00:06:21.741Z,8.30
2023-05-24T00:08:49.059Z,8.20
2023-05-24T00:11:16.780Z,11.30
2023-05-24T00:13:44.285Z,11.77
2023-05-24T00:16:11.921Z,10.60
2023-05-24T00:18:41.303Z,8.50
2023-05-24T00:21:08.792Z,11.18
2023-05-24T00:23:37.351Z,13.03
2023-05-24T00:26:06.536Z,15.45
2023-05-24T00:28:34.101Z,9.48
2023-05-24T00:31:01.875Z,10.67
2023-05-24T00:33:29.935Z,13.13
2023-05-24T00:35:57.541Z,9.97
2023-05-24T00:38:26.579Z,9.33
2023-05-24T00:40:56.579Z,15.73
2023-05-24T00:43:24.388Z,12.20
2023-05-24T00:46:08.539Z,12.53
2023-05-24T00:48:36.271Z,8.17
2023-05-24T00:51:03.773Z,8.37
2023-05-24T00:53:32.186Z,11.77
2023-05-24T00:56:00.349Z,8.68
2023-05-24T00:58:31.247Z,7.87
2023-05-24T01:01:03.426Z,10.00
2023-05-24T01:03:31.432Z,7.40
2023-05-24T01:06:00.021Z,11.17
2023-05-24T01:08:43.002Z,8.15
2023-05-24T01:11:10.784Z,8.93
2023-05-24T01:16:20.162Z,11.10
2023-05-24T01:18:52.972Z,9.60
2023-05-24T01:21:48.698Z,7.23
2023-05-24T01:24:42.495Z,6.80
2023-05-24T01:27:13.463Z,10.07
2023-05-24T01:29:41.889Z,7.83
2023-05-24T01:32:10.085Z,8.63
2023-05-24T01:34:37.421Z,10.37
2023-05-24T01:37:05.260Z,13.23
2023-05-24T01:39:32.774Z,8.07
2023-05-24T01:42:25.078Z,7.57
2023-05-24T01:45:26.117Z,8.63
2023-05-24T01:48:18.972Z,13.13
2023-05-24T01:50:52.659Z,7.30
2023-05-24T01:53:23.306Z,7.23
2023-05-24T01:55:54.251Z,8.93
2023-05-24T01:58:24.066Z,10.67
2023-05-24T02:00:52.600Z,7.13
2023-05-24T02:03:21.769Z,7.43
2023-05-24T02:05:49.450Z,28.30
2023-05-24T02:08:16.782Z,15.27
2023-05-24T02:10:45.609Z,11.98
2023-05-24T02:13:13.012Z,14.53
2023-05-24T02:15:42.150Z,100.73
2023-05-24T02:18:13.228Z,65.77
2023-05-24T02:20:41.193Z,11.20
2023-05-24T02:23:08.861Z,11.50
2023-05-24T02:25:37.424Z,13.30
2023-05-24T02:28:05.097Z,12.00
2023-05-24T02:30:32.393Z,12.13
2023-05-24T02:33:00.894Z,15.20
2023-05-24T02:35:28.300Z,11.07
2023-05-24T02:37:58.818Z,9.40
2023-05-24T02:40:26.493Z,10.53
2023-05-24T02:42:53.854Z,8.33
2023-05-24T02:45:21.209Z,10.23
2023-05-24T02:47:49.159Z,27.03
2023-05-24T02:50:16.700Z,22.17
2023-05-24T02:52:44.318Z,30.07
2023-05-24T02:55:12.479Z,16.15
2023-05-24T02:57:39.837Z,13.50
2023-05-24T03:00:09.740Z,16.97
2023-05-24T03:02:41.693Z,14.83
2023-05-24T03:05:09.999Z,17.13
2023-05-24T03:07:37.728Z,26.83
2023-05-24T03:10:06.861Z,58.53
2023-05-24T03:12:34.225Z,103.20
2023-05-24T03:15:02.659Z,32.90
2023-05-24T03:17:31.134Z,37.85
2023-05-24T03:19:59.839Z,32.73
2023-05-24T03:22:30.385Z,53.60
2023-05-24T03:24:58.406Z,76.90
2023-05-24T03:27:26.913Z,64.25
2023-05-24T03:29:54.860Z,31.47
2023-05-24T03:32:22.759Z,19.57
2023-05-24T03:34:51.137Z,12.03
2023-05-24T03:37:18.950Z,11.20
2023-05-24T03:39:46.722Z,11.87
2023-05-24T03:42:15.089Z,10.45
2023-05-24T03:44:44.072Z,24.37
2023-05-24T03:47:11.832Z,11.50
2023-05-24T03:49:44.128Z,12.30
2023-05-24T03:52:12.176Z,9.43
2023-05-24T03:54:39.643Z,9.93
2023-05-24T03:57:07.152Z,13.83
2023-05-24T04:02:03.823Z,11.97
2023-05-24T04:04:31.585Z,18.60
2023-05-24T04:06:59.219Z,40.93
2023-05-24T04:09:27.289Z,35.77
2023-05-24T04:11:56.110Z,55.07
2023-05-24T04:14:23.506Z,33.60
2023-05-24T04:16:52.074Z,24.67
2023-05-24T04:19:19.917Z,12.00
2023-05-24T04:21:47.886Z,7.97
2023-05-24T04:24:15.270Z,8.57
2023-05-24T04:26:45.550Z,8.25
2023-05-24T04:31:45.252Z,8.80
2023-05-24T04:34:14.545Z,8.73
2023-05-24T04:36:42.052Z,8.67
2023-05-24T04:39:10.144Z,8.40
2023-05-24T04:41:39.199Z,9.65
2023-05-24T04:44:07.731Z,12.45
2023-05-24T04:46:36.405Z,9.33
2023-05-24T04:49:05.968Z,8.93
2023-05-24T04:54:01.767Z,7.53
2023-05-24T04:56:42.394Z,9.00
2023-05-24T04:59:10.100Z,12.67
2023-05-24T05:01:38.228Z,7.73
2023-05-24T05:04:06.106Z,10.43
2023-05-24T05:06:38.898Z,14.90
2023-05-24T05:09:13.423Z,10.73
2023-05-24T05:11:45.148Z,11.57
2023-05-24T05:14:15.616Z,11.07
2023-05-24T05:16:43.181Z,11.90
2023-05-24T05:19:13.601Z,11.03
2023-05-24T05:21:41.804Z,8.30
2023-05-24T05:24:09.262Z,8.27
2023-05-24T05:26:36.730Z,11.50
2023-05-24T05:29:04.558Z,10.63
2023-05-24T05:31:32.384Z,9.70
2023-05-24T05:33:59.769Z,11.53
2023-05-24T05:36:42.489Z,19.27
2023-05-24T05:39:12.050Z,15.73
2023-05-24T05:41:43.507Z,11.48
2023-05-24T05:44:13.769Z,11.43
2023-05-24T05:46:44.159Z,11.80
2023-05-24T05:49:17.022Z,10.00
2023-05-24T05:51:47.172Z,11.20
2023-05-24T05:54:15.832Z,12.20
2023-05-24T05:56:45.992Z,14.25
2023-05-24T05:59:19.687Z,9.37
2023-05-24T06:01:49.205Z,8.57
2023-05-24T06:04:18.499Z,16.03
2023-05-24T06:06:49.873Z,8.30
2023-05-24T06:09:18.512Z,8.03
2023-05-24T06:11:46.257Z,9.20
2023-05-24T06:14:18.522Z,14.17
2023-05-24T06:16:48.260Z,22.03
2023-05-24T06:19:16.952Z,8.53
2023-05-24T06:21:48.472Z,9.77
2023-05-24T06:24:20.810Z,13.33
2023-05-24T06:26:49.243Z,11.27
2023-05-24T06:29:17.142Z,17.30
2023-05-24T06:31:44.525Z,7.93
2023-05-24T06:34:12.032Z,8.80
2023-05-24T06:36:43.281Z,10.15
2023-05-24T06:39:11.169Z,7.47
2023-05-24T06:41:39.625Z,12.83
2023-05-24T06:44:08.656Z,10.32
2023-05-24T06:46:36.685Z,9.65
2023-05-24T06:49:04.206Z,10.70
2023-05-24T06:51:34.039Z,9.02
2023-05-24T06:54:01.814Z,36.30
2023-05-24T06:56:30.163Z,13.83
2023-05-24T07:01:26.274Z,8.48
2023-05-24T07:03:53.725Z,13.18
2023-05-24T07:06:21.657Z,8.60
2023-05-24T07:08:49.077Z,6.72
2023-05-24T07:11:16.607Z,7.75
2023-05-24T07:13:44.494Z,14.53
2023-05-24T07:16:12.275Z,6.43
2023-05-24T07:18:42.052Z,6.45
2023-05-24T07:21:10.209Z,18.05
2023-05-24T07:23:38.411Z,9.85
2023-05-24T07:26:06.585Z,6.10
2023-05-24T07:28:38.047Z,8.52
2023-05-24T07:31:05.861Z,5.18
2023-05-24T07:33:33.713Z,6.15
2023-05-24T07:36:02.862Z,20.27
2023-05-24T07:38:30.670Z,6.35
2023-05-24T07:41:03.659Z,8.10
2023-05-24T07:43:31.824Z,5.28
2023-05-24T07:48:28.303Z,5.50
2023-05-24T07:50:55.701Z,5.97
2023-05-24T07:53:32.399Z,5.85
2023-05-24T07:56:00.914Z,4.78
2023-05-24T07:58:30.504Z,6.15
2023-05-24T08:00:59.172Z,4.65
2023-05-24T08:03:27.715Z,7.47
2023-05-24T08:05:56.109Z,6.30
2023-05-24T08:08:23.571Z,6.78
2023-05-24T08:10:51.569Z,4.20
2023-05-24T08:13:21.665Z,8.70
2023-05-24T08:15:51.834Z,7.80
2023-05-24T08:18:19.673Z,11.63
2023-05-24T08:20:47.092Z,11.88
2023-05-24T08:23:14.672Z,5.18
2023-05-24T08:25:43.018Z,8.35
2023-05-24T08:28:11.285Z,6.53
2023-05-24T08:33:06.828Z,6.32
2023-05-24T08:35:36.182Z,4.07
2023-05-24T08:38:04.049Z,4.68
2023-05-24T08:40:31.893Z,5.50
2023-05-24T08:43:03.883Z,7.60
2023-05-24T08:45:37.467Z,6.28
2023-05-24T08:48:08.597Z,8.15
2023-05-24T08:50:36.489Z,6.53
2023-05-24T08:53:08.004Z,8.77
2023-05-24T08:55:36.617Z,8.45
2023-05-24T08:58:05.122Z,6.82
2023-05-24T09:00:32.513Z,5.32
2023-05-24T09:03:03.026Z,3.53
2023-05-24T09:05:31.606Z,6.05
2023-05-24T09:08:01.575Z,6.85
2023-05-24T09:10:41.261Z,4.87
2023-05-24T09:13:19.650Z,7.57
2023-05-24T09:15:47.532Z,5.55
2023-05-24T09:18:15.110Z,7.95
2023-05-24T09:20:42.830Z,7.60
2023-05-24T09:23:12.952Z,12.30
2023-05-24T09:25:48.109Z,4.53
2023-05-24T09:28:18.331Z,6.28
2023-05-24T09:30:47.160Z,3.55
2023-05-24T09:33:14.591Z,27.73
2023-05-24T09:35:44.324Z,9.15
2023-05-24T09:38:19.075Z,7.32
2023-05-24T09:40:47.146Z,7.05
2023-05-24T09:43:14.526Z,6.82
2023-05-24T09:45:49.522Z,13.88
2023-05-24T09:48:17.630Z,7.55
2023-05-24T09:50:48.415Z,4.50
2023-05-24T09:53:19.437Z,5.60
2023-05-24T09:55:47.277Z,11.27
2023-05-24T09:58:16.076Z,7.32
2023-05-24T10:03:13.129Z,7.03
2023-05-24T10:05:47.017Z,5.30
2023-05-24T10:08:16.496Z,12.63
2023-05-24T10:10:45.494Z,4.05
2023-05-24T10:13:16.167Z,6.85
2023-05-24T10:15:47.200Z,3.90
2023-05-24T10:18:15.318Z,11.65
2023-05-24T10:20:43.483Z,8.00
2023-05-24T10:23:22.402Z,5.03
2023-05-24T10:26:01.684Z,8.02
2023-05-24T10:28:31.216Z,6.68
2023-05-24T10:31:06.068Z,8.73
2023-05-24T10:33:37.671Z,6.25
2023-05-24T10:36:11.570Z,6.05
2023-05-24T10:38:40.906Z,8.55
2023-05-24T10:41:09.288Z,6.20
2023-05-24T10:43:38.204Z,3.47
2023-05-24T10:46:10.055Z,6.90
2023-05-24T10:48:39.442Z,3.22
2023-05-24T10:51:39.656Z,3.92
2023-05-24T10:54:20.324Z,7.07
2023-05-24T10:56:50.987Z,7.93
2023-05-24T10:59:38.126Z,6.40
2023-05-24T11:02:14.238Z,7.23
2023-05-24T11:04:46.482Z,6.95
2023-05-24T11:07:15.874Z,4.68
2023-05-24T11:09:53.671Z,5.68
2023-05-24T11:12:22.087Z,8.25
2023-05-24T11:17:23.219Z,4.43
2023-05-24T11:19:55.330Z,17.17
2023-05-24T11:22:26.079Z,5.55
2023-05-24T11:24:54.241Z,5.78
2023-05-24T11:27:22.338Z,6.15
2023-05-24T11:29:50.249Z,5.50
2023-05-24T11:32:20.004Z,5.60
2023-05-24T11:34:48.898Z,3.40
2023-05-24T11:37:18.410Z,3.78
2023-05-24T11:39:52.831Z,6.12
2023-05-24T11:42:22.968Z,7.28
2023-05-24T11:44:50.956Z,3.95
2023-05-24T11:47:23.703Z,5.85
2023-05-24T11:49:52.920Z,3.42
2023-05-24T11:52:20.758Z,3.22
2023-05-24T11:54:50.969Z,10.52
2023-05-24T11:57:24.066Z,5.05
2023-05-24T11:59:51.851Z,4.85
2023-05-24T12:02:19.880Z,5.78
2023-05-24T12:04:47.693Z,13.15
2023-05-24T12:07:16.704Z,5.28
2023-05-24T12:09:44.078Z,5.45
2023-05-24T12:12:11.882Z,3.12
2023-05-24T12:14:40.092Z,5.37
2023-05-24T12:17:16.292Z,5.32
2023-05-24T12:19:44.281Z,4.78
2023-05-24T12:22:11.785Z,3.70
2023-05-24T12:24:39.298Z,3.58
2023-05-24T12:27:08.975Z,3.90
2023-05-24T12:29:41.944Z,3.92
2023-05-24T12:32:14.655Z,3.25
2023-05-24T12:34:43.962Z,4.22
2023-05-24T12:37:13.328Z,5.53
2023-05-24T12:39:43.366Z,5.20
2023-05-24T12:42:13.765Z,3.97
2023-05-24T12:44:42.109Z,4.37
2023-05-24T12:47:09.875Z,8.02
2023-05-24T12:49:37.799Z,3.85
2023-05-24T12:52:06.825Z,4.22
2023-05-24T12:54:34.641Z,4.32
2023-05-24T12:57:05.322Z,6.10
2023-05-24T12:59:33.758Z,10.52
2023-05-24T13:02:01.968Z,4.47
2023-05-24T13:06:59.416Z,4.28
2023-05-24T13:09:27.081Z,6.15
2023-05-24T13:11:55.630Z,4.45
2023-05-24T13:14:23.075Z,7.63
2023-05-24T13:16:51.076Z,3.62
2023-05-24T13:19:19.328Z,10.50
2023-05-24T13:21:46.878Z,7.65
2023-05-24T13:24:17.593Z,4.05
2023-05-24T13:26:46.337Z,7.18
2023-05-24T13:31:45.356Z,3.17
2023-05-24T13:34:12.953Z,6.05
2023-05-24T13:36:40.597Z,7.78
2023-05-24T13:39:14.836Z,5.22
2023-05-24T13:41:45.316Z,18.70
2023-05-24T13:44:15.010Z,11.30
2023-05-24T13:46:43.432Z,3.40
2023-05-24T13:49:12.165Z,9.02
2023-05-24T13:51:40.456Z,6.70
2023-05-24T13:54:08.505Z,3.80
2023-05-24T13:56:36.852Z,4.97
2023-05-24T13:59:05.560Z,3.70
2023-05-24T14:01:34.372Z,4.15
2023-05-24T14:04:03.164Z,11.63
2023-05-24T14:06:31.585Z,4.12
2023-05-24T14:08:59.679Z,7.70
2023-05-24T14:11:31.684Z,3.83
2023-05-24T14:16:30.516Z,4.47
2023-05-24T14:18:58.728Z,6.37
2023-05-24T14:21:27.404Z,3.33
2023-05-24T14:23:55.604Z,3.87
2023-05-24T14:26:24.108Z,4.50
2023-05-24T14:28:54.463Z,3.42
2023-05-24T14:31:24.538Z,6.10
2023-05-24T14:33:52.038Z,5.03
2023-05-24T14:36:19.541Z,3.35
2023-05-24T14:38:47.377Z,5.95
2023-05-24T14:41:15.641Z,5.25
2023-05-24T14:43:43.251Z,4.95
2023-05-24T14:46:11.136Z,6.20
2023-05-24T14:48:41.721Z,3.80
2023-05-24T14:51:09.441Z,10.70
2023-05-24T14:53:37.314Z,4.78
2023-05-24T14:56:06.464Z,4.68
2023-05-24T14:58:33.984Z,4.75
2023-05-24T15:01:02.424Z,11.70
2023-05-24T15:03:29.951Z,5.87
2023-05-24T15:05:57.778Z,5.65
2023-05-24T15:08:25.587Z,7.03
2023-05-24T15:10:53.071Z,10.63
2023-05-24T15:13:20.766Z,3.63
2023-05-24T15:15:48.615Z,3.90
2023-05-24T15:18:16.458Z,5.75
2023-05-24T15:20:44.138Z,3.65
2023-05-24T15:23:12.209Z,4.32
2023-05-24T15:25:39.709Z,4.10
2023-05-24T15:28:07.166Z,5.77
2023-05-24T15:30:34.918Z,2.50
2023-05-24T15:33:02.494Z,3.20
2023-05-24T15:35:30.099Z,5.62
2023-05-24T15:37:57.754Z,3.08
2023-05-24T15:40:25.132Z,4.03
2023-05-24T15:42:53.138Z,3.20
2023-05-24T15:45:21.557Z,4.53
2023-05-24T15:47:49.069Z,3.15
2023-05-24T15:50:16.787Z,5.73
2023-05-24T15:52:44.766Z,4.55
2023-05-24T15:55:12.141Z,6.53
2023-05-24T15:57:39.548Z,5.78
2023-05-24T16:00:07.906Z,6.18
2023-05-24T16:02:42.608Z,4.05
2023-05-24T16:05:10.557Z,5.00
2023-05-24T16:07:37.889Z,3.85
2023-05-24T16:10:05.858Z,3.37
2023-05-24T16:12:33.560Z,6.15
2023-05-24T16:15:02.006Z,8.52
2023-05-24T16:17:31.764Z,9.15
2023-05-24T16:19:59.770Z,6.40
2023-05-24T16:22:27.172Z,5.90
2023-05-24T16:24:54.603Z,4.20
2023-05-24T16:27:22.349Z,6.12
2023-05-24T16:29:49.758Z,10.23
2023-05-24T16:32:17.302Z,6.70
2023-05-24T16:34:56.280Z,6.90
2023-05-24T16:37:24.767Z,6.85
2023-05-24T16:39:52.443Z,9.83
2023-05-24T16:42:19.837Z,6.43
2023-05-24T16:44:47.534Z,5.12
2023-05-24T16:47:16.371Z,15.35
2023-05-24T16:49:44.704Z,18.02
2023-05-24T16:52:12.433Z,22.60
2023-05-24T16:54:41.019Z,17.45
2023-05-24T16:57:08.427Z,8.73
2023-05-24T16:59:35.889Z,7.78
2023-05-24T17:02:03.684Z,10.67
2023-05-24T17:04:31.125Z,10.07
2023-05-24T17:06:58.551Z,7.05
2023-05-24T17:09:26.307Z,6.28
2023-05-24T17:11:53.710Z,16.48
2023-05-24T17:14:21.164Z,24.37
2023-05-24T17:16:49.009Z,14.07
2023-05-24T17:19:16.663Z,9.93
2023-05-24T17:21:44.118Z,7.47
2023-05-24T17:24:11.857Z,11.23
2023-05-24T17:26:40.570Z,14.00
2023-05-24T17:29:07.980Z,8.77
2023-05-24T17:31:36.385Z,13.27
2023-05-24T17:34:04.012Z,10.18
2023-05-24T17:36:33.799Z,15.02
2023-05-24T17:39:01.539Z,15.38
2023-05-24T17:41:28.838Z,14.35
2023-05-24T17:43:56.531Z,16.33
2023-05-24T17:46:24.512Z,14.48
2023-05-24T17:48:52.206Z,18.85
2023-05-24T17:51:19.838Z,14.00
2023-05-24T17:53:48.168Z,11.27
2023-05-24T17:56:15.848Z,13.07
2023-05-24T17:58:44.472Z,10.40
2023-05-24T18:01:13.299Z,13.77
2023-05-24T18:03:41.846Z,15.63
2023-05-24T18:06:10.100Z,9.73
2023-05-24T18:08:38.956Z,12.30
2023-05-24T18:11:09.821Z,11.82
2023-05-24T18:13:39.174Z,15.00
2023-05-24T18:16:08.586Z,13.48
2023-05-24T18:18:37.822Z,11.85
2023-05-24T18:21:06.648Z,10.52
2023-05-24T18:23:37.947Z,11.60
2023-05-24T18:26:10.916Z,10.10
2023-05-24T18:28:42.199Z,8.60
2023-05-24T18:31:14.999Z,6.85
2023-05-24T18:33:43.050Z,9.75
2023-05-24T18:36:12.796Z,8.93
2023-05-24T18:38:40.784Z,11.88
2023-05-24T18:41:10.328Z,13.50
2023-05-24T18:43:38.361Z,12.52
2023-05-24T18:46:19.081Z,16.45
2023-05-24T18:48:47.685Z,11.65
2023-05-24T18:51:15.182Z,11.73
2023-05-24T18:53:42.740Z,11.43
2023-05-24T18:56:10.613Z,9.68
2023-05-24T18:58:38.198Z,7.10
2023-05-24T19:01:05.880Z,8.80
2023-05-24T19:03:33.708Z,9.38
2023-05-24T19:06:01.165Z,6.50
2023-05-24T19:08:28.645Z,9.15
2023-05-24T19:10:56.432Z,9.33
2023-05-24T19:13:23.859Z,7.50
2023-05-24T19:15:51.447Z,8.90
2023-05-24T19:18:19.708Z,19.10
2023-05-24T19:20:47.138Z,15.97
2023-05-24T19:23:14.617Z,12.57
2023-05-24T19:25:44.269Z,7.47
2023-05-24T19:28:11.772Z,7.27
2023-05-24T19:30:39.240Z,7.43
2023-05-24T19:33:07.608Z,7.70
2023-05-24T19:35:35.335Z,11.98
2023-05-24T19:38:02.702Z,7.63
2023-05-24T19:40:30.620Z,7.87
2023-05-24T19:42:57.995Z,9.90
2023-05-24T19:45:25.814Z,11.00
2023-05-24T19:47:53.635Z,14.05
2023-05-24T19:50:21.147Z,11.10
2023-05-24T19:52:48.609Z,13.00
2023-05-24T19:55:16.879Z,11.90
2023-05-24T19:57:44.298Z,12.17
2023-05-24T20:00:12.658Z,10.53
2023-05-24T20:02:40.251Z,11.90
2023-05-24T20:05:09.099Z,10.48
2023-05-24T20:07:36.520Z,14.10
2023-05-24T20:10:05.732Z,12.73
2023-05-24T20:12:34.795Z,9.43
2023-05-24T20:15:02.252Z,8.52
2023-05-24T20:17:29.789Z,12.43
2023-05-24T20:19:57.626Z,9.13
2023-05-24T20:22:25.139Z,7.53
2023-05-24T20:24:52.481Z,8.63
2023-05-24T20:27:20.144Z,13.20
2023-05-24T20:29:48.058Z,13.37
2023-05-24T20:32:16.405Z,9.55
2023-05-24T20:34:44.052Z,9.63
2023-05-24T20:37:11.497Z,9.40
2023-05-24T20:39:38.906Z,9.53
2023-05-24T20:42:07.987Z,11.20
2023-05-24T20:44:35.566Z,8.75
2023-05-24T20:47:02.916Z,11.07
2023-05-24T20:49:30.725Z,9.63
2023-05-24T20:51:58.234Z,8.13
2023-05-24T20:54:25.608Z,10.37
2023-05-24T20:56:53.375Z,7.20
2023-05-24T20:59:20.918Z,10.53
2023-05-24T21:01:48.286Z,9.13
2023-05-24T21:04:16.252Z,6.20
2023-05-24T21:06:43.651Z,9.90
2023-05-24T21:09:11.393Z,9.40
2023-05-24T21:11:39.500Z,8.70
2023-05-24T21:14:06.958Z,10.33
2023-05-24T21:16:34.604Z,15.93
2023-05-24T21:19:02.360Z,14.37
2023-05-24T21:21:29.693Z,11.53
2023-05-24T21:23:58.046Z,14.90
2023-05-24T21:26:26.766Z,14.63
2023-05-24T21:28:54.128Z,26.90
2023-05-24T21:31:23.864Z,12.80
2023-05-24T21:33:51.738Z,11.70
2023-05-24T21:36:19.036Z,16.00
2023-05-24T21:38:46.387Z,11.17
2023-05-24T21:41:14.013Z,12.07
2023-05-24T21:43:42.846Z,12.60
2023-05-24T21:46:10.272Z,16.52
2023-05-24T21:48:38.008Z,12.33
2023-05-24T21:51:05.393Z,10.73
2023-05-24T21:53:32.848Z,9.23
2023-05-24T21:56:00.655Z,8.50
2023-05-24T21:58:27.985Z,10.30
2023-05-24T22:00:55.414Z,13.97
2023-05-24T22:03:23.207Z,11.73
2023-05-24T22:05:50.513Z,10.47
2023-05-24T22:08:17.880Z,13.33
2023-05-24T22:10:45.534Z,13.80
2023-05-24T22:13:12.875Z,10.53
2023-05-24T22:15:40.247Z,8.43
2023-05-24T22:18:08.533Z,14.20
2023-05-24T22:20:36.858Z,10.80
2023-05-24T22:23:04.367Z,7.90
2023-05-24T22:25:32.103Z,8.40
2023-05-24T22:27:59.463Z,6.33
2023-05-24T22:30:26.835Z,8.73
2023-05-24T22:32:56.040Z,9.07
2023-05-24T22:35:23.459Z,6.85
2023-05-24T22:37:50.794Z,9.23
2023-05-24T22:40:18.601Z,10.97
2023-05-24T22:42:45.847Z,16.57
2023-05-24T22:45:14.038Z,13.90
2023-05-24T22:47:41.711Z,8.63
2023-05-24T22:50:09.675Z,11.00
2023-05-24T22:52:42.486Z,12.90
2023-05-24T22:55:13.220Z,10.90
2023-05-24T22:57:40.666Z,8.93
2023-05-24T23:00:08.510Z,7.73
2023-05-24T23:02:36.591Z,11.05
2023-05-24T23:05:04.383Z,10.70
2023-05-24T23:16:08.667Z,9.87
2023-05-24T23:18:37.940Z,9.83
2023-05-24T23:21:05.439Z,12.07
2023-05-24T23:23:32.899Z,11.03
2023-05-24T23:26:00.737Z,11.20
2023-05-24T23:28:28.087Z,8.23
2023-05-24T23:30:55.800Z,9.57
2023-05-24T23:33:23.502Z,8.43
2023-05-24T23:35:50.799Z,9.67
2023-05-24T23:38:18.105Z,9.40
2023-05-24T23:40:45.973Z,6.77
2023-05-24T23:43:13.349Z,8.33
2023-05-24T23:45:40.798Z,11.50
2023-05-24T23:48:08.707Z,8.97
2023-05-24T23:50:50.253Z,12.30
2023-05-24T23:53:21.453Z,10.93
2023-05-24T23:55:49.624Z,7.77
2023-05-24T23:58:19.141Z,8.50
